createdAt,value
2018-08-30T00:00:08.321Z,18.00
2018-08-30T00:02:35.959Z,18.00
2018-08-30T00:05:04.017Z,18.00
2018-08-30T00:07:31.671Z,17.90
2018-08-30T00:09:59.310Z,17.90
2018-08-30T00:12:26.975Z,17.90
2018-08-30T00:14:57.655Z,17.80
2018-08-30T00:17:25.324Z,17.70
2018-08-30T00:19:53.061Z,17.70
2018-08-30T00:22:20.661Z,17.70
2018-08-30T00:24:48.269Z,17.70
2018-08-30T00:27:15.913Z,17.60
2018-08-30T00:29:43.569Z,17.60
2018-08-30T00:32:11.237Z,17.70
2018-08-30T00:34:41.180Z,17.50
2018-08-30T00:37:08.910Z,17.50
2018-08-30T00:39:36.661Z,17.50
2018-08-30T00:42:04.859Z,17.40
2018-08-30T00:44:32.524Z,17.50
2018-08-30T00:47:00.272Z,17.50
2018-08-30T00:49:28.007Z,17.50
2018-08-30T00:51:55.719Z,17.50
2018-08-30T00:54:23.520Z,17.50
2018-08-30T00:56:51.276Z,17.40
2018-08-30T00:59:18.979Z,17.40
2018-08-30T01:01:46.713Z,17.40
2018-08-30T01:04:14.447Z,17.40
2018-08-30T01:06:42.127Z,17.40
2018-08-30T01:09:09.844Z,17.30
2018-08-30T01:11:37.589Z,17.20
2018-08-30T01:14:05.328Z,17.10
2018-08-30T01:16:33.671Z,17.10
2018-08-30T01:19:01.451Z,17.10
2018-08-30T01:21:29.174Z,17.00
2018-08-30T01:23:56.987Z,17.10
2018-08-30T01:26:24.772Z,17.00
2018-08-30T01:28:52.508Z,17.00
2018-08-30T01:31:20.227Z,17.00
2018-08-30T01:33:48.021Z,16.90
2018-08-30T01:36:15.688Z,16.90
2018-08-30T01:38:43.363Z,16.90
2018-08-30T01:41:11.107Z,16.70
2018-08-30T01:43:38.808Z,16.70
2018-08-30T01:46:06.507Z,16.70
2018-08-30T01:48:34.560Z,16.60
2018-08-30T01:51:02.239Z,16.60
2018-08-30T01:53:29.931Z,16.60
2018-08-30T01:55:57.676Z,16.60
2018-08-30T01:58:25.411Z,16.60
2018-08-30T02:00:53.199Z,16.60
2018-08-30T02:03:21.019Z,16.50
2018-08-30T02:05:48.702Z,16.60
2018-08-30T02:08:16.464Z,16.50
2018-08-30T02:10:44.179Z,16.40
2018-08-30T02:13:11.915Z,16.40
2018-08-30T02:15:39.683Z,16.30
2018-08-30T02:18:07.433Z,16.40
2018-08-30T02:20:35.247Z,16.40
2018-08-30T02:23:03.312Z,16.50
2018-08-30T02:25:31.078Z,16.50
2018-08-30T02:27:58.795Z,16.50
2018-08-30T02:30:26.472Z,16.50
2018-08-30T02:32:54.215Z,16.30
2018-08-30T02:35:21.904Z,16.40
2018-08-30T02:37:49.582Z,16.30
2018-08-30T02:40:17.320Z,16.30
2018-08-30T02:42:44.995Z,16.30
2018-08-30T02:45:12.760Z,16.40
2018-08-30T02:47:40.504Z,16.30
2018-08-30T02:50:08.252Z,16.20
2018-08-30T02:52:35.976Z,16.30
2018-08-30T02:55:03.767Z,16.20
2018-08-30T02:57:31.468Z,16.20
2018-08-30T03:00:02.506Z,16.20
2018-08-30T03:02:32.276Z,16.30
2018-08-30T03:05:00.001Z,16.30
2018-08-30T03:07:27.716Z,16.30
2018-08-30T03:09:55.500Z,16.30
2018-08-30T03:12:23.258Z,16.30
2018-08-30T03:15:02.363Z,16.30
2018-08-30T03:17:30.094Z,16.20
2018-08-30T03:19:57.809Z,16.30
2018-08-30T03:22:25.552Z,16.40
2018-08-30T03:24:53.320Z,16.30
2018-08-30T03:27:21.007Z,16.40
2018-08-30T03:29:49.096Z,16.30
2018-08-30T03:32:16.819Z,16.30
2018-08-30T03:34:44.493Z,16.30
2018-08-30T03:37:12.207Z,16.30
2018-08-30T03:39:40.021Z,16.20
2018-08-30T03:42:07.716Z,16.30
2018-08-30T03:44:35.421Z,16.20
2018-08-30T03:47:03.282Z,16.20
2018-08-30T03:49:30.979Z,16.20
2018-08-30T03:51:58.740Z,16.20
2018-08-30T03:54:26.437Z,16.20
2018-08-30T03:56:54.183Z,16.20
2018-08-30T03:59:21.935Z,16.20
2018-08-30T04:01:49.680Z,16.10
2018-08-30T04:04:17.492Z,16.10
2018-08-30T04:06:45.228Z,16.20
2018-08-30T04:09:12.943Z,16.20
2018-08-30T04:11:41.655Z,16.10
2018-08-30T04:14:09.376Z,16.10
2018-08-30T04:16:37.134Z,16.00
2018-08-30T04:19:07.024Z,16.10
2018-08-30T04:21:35.539Z,16.00
2018-08-30T04:24:04.704Z,16.00
2018-08-30T04:26:32.440Z,15.90
2018-08-30T04:29:03.420Z,15.80
2018-08-30T04:31:31.209Z,15.80
2018-08-30T04:33:58.844Z,15.80
2018-08-30T04:36:26.564Z,15.80
2018-08-30T04:38:55.137Z,15.80
2018-08-30T04:41:22.812Z,15.80
2018-08-30T04:43:50.468Z,15.80
2018-08-30T04:46:18.304Z,15.80
2018-08-30T04:48:46.044Z,15.70
2018-08-30T04:51:13.760Z,15.70
2018-08-30T04:53:41.483Z,15.60
2018-08-30T04:56:09.211Z,15.70
2018-08-30T04:58:36.902Z,15.60
2018-08-30T05:01:04.714Z,15.70
2018-08-30T05:03:32.460Z,15.60
2018-08-30T05:06:00.140Z,15.60
2018-08-30T05:08:27.844Z,15.70
2018-08-30T05:10:55.662Z,15.70
2018-08-30T05:13:24.482Z,15.70
2018-08-30T05:15:52.224Z,15.70
2018-08-30T05:18:19.999Z,15.80
2018-08-30T05:20:47.751Z,15.80
2018-08-30T05:23:15.521Z,15.80
2018-08-30T05:25:43.276Z,15.80
2018-08-30T05:28:10.976Z,15.80
2018-08-30T05:30:38.711Z,15.90
2018-08-30T05:33:07.056Z,15.90
2018-08-30T05:35:34.885Z,15.80
2018-08-30T05:38:02.647Z,15.80
2018-08-30T05:40:30.403Z,15.90
2018-08-30T05:42:58.292Z,15.90
2018-08-30T05:45:26.007Z,15.90
2018-08-30T05:47:53.719Z,15.90
2018-08-30T05:50:21.410Z,15.90
2018-08-30T05:52:49.165Z,15.80
2018-08-30T05:55:16.927Z,15.90
2018-08-30T05:57:44.641Z,15.90
2018-08-30T06:00:12.376Z,15.90
2018-08-30T06:02:40.120Z,15.90
2018-08-30T06:05:07.819Z,15.90
2018-08-30T06:07:35.532Z,15.90
2018-08-30T06:10:03.351Z,16.00
2018-08-30T06:12:33.423Z,16.00
2018-08-30T06:15:01.172Z,16.00
2018-08-30T06:17:28.909Z,16.10
2018-08-30T06:19:56.632Z,16.10
2018-08-30T06:22:24.359Z,16.10
2018-08-30T06:24:52.084Z,16.10
2018-08-30T06:27:19.751Z,16.10
2018-08-30T06:29:47.531Z,16.10
2018-08-30T06:32:15.351Z,16.10
2018-08-30T06:34:43.110Z,16.10
2018-08-30T06:37:14.407Z,16.10
2018-08-30T06:39:42.220Z,16.00
2018-08-30T06:42:09.982Z,16.00
2018-08-30T06:44:37.768Z,16.00
2018-08-30T06:47:05.499Z,16.00
2018-08-30T06:49:34.238Z,16.10
2018-08-30T06:52:02.127Z,16.10
2018-08-30T06:54:29.776Z,16.10
2018-08-30T06:57:00.516Z,16.10
2018-08-30T06:59:28.256Z,16.10
2018-08-30T07:01:55.988Z,16.20
2018-08-30T07:04:23.683Z,16.20
2018-08-30T07:06:51.514Z,16.20
2018-08-30T07:09:19.173Z,16.20
2018-08-30T07:11:46.890Z,16.30
2018-08-30T07:14:17.828Z,16.20
2018-08-30T07:16:45.516Z,16.20
2018-08-30T07:19:13.204Z,16.20
2018-08-30T07:21:40.984Z,16.10
2018-08-30T07:24:08.728Z,16.20
2018-08-30T07:26:36.412Z,16.20
2018-08-30T07:29:04.163Z,16.20
2018-08-30T07:31:31.852Z,16.20
2018-08-30T07:33:59.573Z,16.20
2018-08-30T07:36:27.298Z,16.30
2018-08-30T07:38:55.004Z,16.30
2018-08-30T07:41:22.652Z,16.40
2018-08-30T07:43:50.462Z,16.50
2018-08-30T07:46:18.160Z,16.40
2018-08-30T07:48:45.815Z,16.40
2018-08-30T07:51:13.648Z,16.40
2018-08-30T07:53:41.444Z,16.50
2018-08-30T07:56:09.308Z,16.60
2018-08-30T07:58:37.075Z,16.50
2018-08-30T08:01:04.866Z,16.60
2018-08-30T08:03:36.303Z,16.60
2018-08-30T08:06:04.114Z,16.60
2018-08-30T08:08:31.864Z,16.70
2018-08-30T08:13:07.721Z,16.60
2018-08-30T08:15:35.401Z,16.60
2018-08-30T08:18:03.091Z,16.70
2018-08-30T08:20:30.900Z,16.70
2018-08-30T08:22:58.672Z,16.80
2018-08-30T08:25:26.813Z,16.90
2018-08-30T08:27:54.495Z,17.00
2018-08-30T08:30:22.372Z,17.10
2018-08-30T08:32:50.099Z,17.40
2018-08-30T08:35:17.791Z,17.40
2018-08-30T08:37:45.569Z,17.40
2018-08-30T08:40:13.304Z,17.50
2018-08-30T08:42:41.051Z,17.50
2018-08-30T08:45:08.836Z,17.50
2018-08-30T08:47:36.597Z,17.50
2018-08-30T08:50:04.420Z,17.70
2018-08-30T08:52:32.116Z,17.60
2018-08-30T08:54:59.949Z,17.60
2018-08-30T08:57:27.743Z,17.50
2018-08-30T08:59:55.504Z,17.30
2018-08-30T09:02:23.256Z,17.40
2018-08-30T09:04:50.991Z,17.40
2018-08-30T09:07:18.709Z,17.50
2018-08-30T09:09:46.380Z,17.50
2018-08-30T09:12:14.165Z,17.70
2018-08-30T09:30:09.295Z,17.60
2018-08-30T09:32:37.051Z,17.80
2018-08-30T09:35:05.709Z,17.80
2018-08-30T09:37:33.607Z,17.80
2018-08-30T09:40:01.319Z,17.80
2018-08-30T09:42:30.508Z,17.90
2018-08-30T09:44:58.343Z,17.80
2018-08-30T09:47:26.137Z,17.90
2018-08-30T09:49:53.855Z,18.00
2018-08-30T09:52:21.563Z,18.10
2018-08-30T09:54:49.292Z,18.30
2018-08-30T09:57:17.128Z,18.40
2018-08-30T09:59:44.731Z,18.50
2018-08-30T10:02:18.188Z,18.50
2018-08-30T10:04:45.978Z,18.50
2018-08-30T10:07:13.627Z,18.40
2018-08-30T10:09:41.336Z,18.40
2018-08-30T10:12:09.112Z,18.40
2018-08-30T10:14:37.010Z,18.40
2018-08-30T10:17:04.887Z,18.40
2018-08-30T10:19:32.703Z,18.50
2018-08-30T10:22:00.486Z,18.70
2018-08-30T10:24:28.272Z,18.90
2018-08-30T10:26:56.036Z,18.90
2018-08-30T10:29:23.705Z,18.90
2018-08-30T10:31:51.372Z,18.90
2018-08-30T10:34:19.159Z,18.80
2018-08-30T10:36:47.016Z,18.80
2018-08-30T10:39:14.716Z,18.70
2018-08-30T10:41:42.459Z,18.70
2018-08-30T10:44:10.155Z,18.80
2018-08-30T10:46:37.887Z,18.80
2018-08-30T10:49:05.678Z,18.70
2018-08-30T10:52:36.885Z,18.80
2018-08-30T10:55:04.983Z,18.90
2018-08-30T10:57:32.751Z,19.00
2018-08-30T11:00:00.452Z,19.10
2018-08-30T11:02:28.375Z,19.20
2018-08-30T11:04:56.224Z,19.30
2018-08-30T11:07:24.033Z,19.30
2018-08-30T11:25:19.064Z,19.40
2018-08-30T11:27:46.932Z,19.40
2018-08-30T11:30:14.549Z,19.50
2018-08-30T11:32:42.359Z,19.60
2018-08-30T11:35:10.111Z,19.70
2018-08-30T11:37:37.803Z,19.80
2018-08-30T11:40:05.596Z,19.80
2018-08-30T11:42:33.256Z,19.80
2018-08-30T11:45:00.911Z,19.80
2018-08-30T11:47:28.656Z,20.00
2018-08-30T11:49:56.384Z,20.20
2018-08-30T11:52:24.192Z,20.30
2018-08-30T11:54:51.820Z,20.40
2018-08-30T11:57:19.631Z,20.30
2018-08-30T11:59:47.463Z,20.30
2018-08-30T12:02:15.252Z,20.30
2018-08-30T12:04:42.955Z,20.30
2018-08-30T12:07:10.716Z,20.60
2018-08-30T12:09:38.524Z,20.70
2018-08-30T12:12:07.311Z,20.80
2018-08-30T12:14:35.030Z,20.80
2018-08-30T12:17:02.848Z,20.90
2018-08-30T12:19:30.616Z,20.90
2018-08-30T12:21:58.395Z,21.20
2018-08-30T12:24:26.186Z,21.40
2018-08-30T12:26:54.975Z,21.60
2018-08-30T12:29:22.706Z,22.10
2018-08-30T12:31:50.496Z,22.50
2018-08-30T12:34:18.233Z,22.50
2018-08-30T12:36:45.927Z,22.60
2018-08-30T12:39:13.909Z,22.70
2018-08-30T12:41:41.811Z,22.60
2018-08-30T12:44:09.630Z,22.40
2018-08-30T12:46:37.428Z,22.00
2018-08-30T12:49:05.169Z,21.80
2018-08-30T12:51:33.153Z,21.60
2018-08-30T12:54:00.850Z,21.60
2018-08-30T12:56:29.558Z,21.50
2018-08-30T12:59:02.859Z,21.60
2018-08-30T13:01:30.601Z,21.50
2018-08-30T13:03:58.365Z,21.20
2018-08-30T13:06:26.221Z,21.10
2018-08-30T13:08:54.128Z,21.10
2018-08-30T13:11:21.987Z,21.00
2018-08-30T13:13:49.492Z,20.90
2018-08-30T13:16:17.182Z,21.40
2018-08-30T13:18:45.870Z,21.90
2018-08-30T13:21:13.695Z,21.70
2018-08-30T13:23:41.349Z,21.50
2018-08-30T13:26:09.163Z,21.50
2018-08-30T13:28:37.381Z,21.60
2018-08-30T13:31:07.180Z,21.30
2018-08-30T13:33:35.003Z,21.10
2018-08-30T13:36:03.308Z,21.10
2018-08-30T13:38:30.975Z,21.10
2018-08-30T13:40:58.750Z,21.10
2018-08-30T13:43:26.173Z,20.90
2018-08-30T13:45:55.195Z,21.00
2018-08-30T13:48:22.636Z,21.80
2018-08-30T13:50:50.472Z,21.70
2018-08-30T13:53:18.562Z,22.50
2018-08-30T13:55:45.933Z,22.20
2018-08-30T13:58:13.715Z,22.80
2018-08-30T14:00:42.139Z,23.70
2018-08-30T14:03:09.176Z,24.20
2018-08-30T14:05:37.080Z,24.40
2018-08-30T14:08:04.847Z,24.70
2018-08-30T14:10:32.474Z,24.40
2018-08-30T14:13:00.354Z,23.70
2018-08-30T14:15:28.017Z,23.70
2018-08-30T14:17:55.403Z,23.50
2018-08-30T14:20:23.243Z,22.90
2018-08-30T14:22:50.940Z,22.50
2018-08-30T14:25:18.598Z,23.30
2018-08-30T14:27:46.308Z,23.50
2018-08-30T14:30:14.092Z,22.50
2018-08-30T14:32:41.889Z,22.30
2018-08-30T14:35:09.628Z,21.90
2018-08-30T14:37:37.613Z,21.60
2018-08-30T14:40:05.452Z,22.40
2018-08-30T14:42:33.116Z,23.30
2018-08-30T14:45:00.896Z,23.70
2018-08-30T14:47:28.706Z,23.60
2018-08-30T14:49:56.484Z,23.40
2018-08-30T14:52:24.119Z,22.80
2018-08-30T14:54:51.824Z,23.30
2018-08-30T14:57:19.632Z,23.80
2018-08-30T14:59:47.359Z,24.00
2018-08-30T15:02:15.088Z,24.00
2018-08-30T15:04:42.804Z,23.50
2018-08-30T15:07:11.580Z,22.60
2018-08-30T15:09:39.307Z,22.40
2018-08-30T15:12:07.019Z,22.20
2018-08-30T15:14:43.671Z,22.00
2018-08-30T15:17:11.554Z,22.00
2018-08-30T15:19:39.303Z,21.90
2018-08-30T15:22:06.972Z,21.80
2018-08-30T15:24:34.725Z,21.60
2018-08-30T15:27:02.693Z,21.70
2018-08-30T15:29:30.336Z,21.50
2018-08-30T15:31:58.229Z,21.40
2018-08-30T15:34:25.943Z,21.40
2018-08-30T15:36:53.594Z,21.30
2018-08-30T15:39:21.316Z,21.10
2018-08-30T15:41:48.984Z,20.90
2018-08-30T15:44:16.746Z,20.80
2018-08-30T15:46:44.508Z,20.80
2018-08-30T15:49:12.300Z,20.80
2018-08-30T15:51:40.044Z,20.70
2018-08-30T15:54:07.703Z,20.50
2018-08-30T15:56:35.389Z,20.40
2018-08-30T15:59:04.993Z,20.40
2018-08-30T16:01:32.558Z,20.30
2018-08-30T16:11:03.204Z,20.10
2018-08-30T16:13:30.578Z,20.00
2018-08-30T16:15:58.482Z,19.90
2018-08-30T16:18:25.933Z,19.90
2018-08-30T16:20:53.309Z,19.90
2018-08-30T16:23:23.986Z,19.90
2018-08-30T16:32:54.106Z,19.90
2018-08-30T16:35:21.571Z,19.70
2018-08-30T16:37:52.250Z,19.70
2018-08-30T16:40:19.764Z,19.70
2018-08-30T16:42:47.640Z,19.70
2018-08-30T16:45:15.373Z,19.70
2018-08-30T16:47:43.203Z,19.60
2018-08-30T16:50:10.955Z,19.60
2018-08-30T16:52:38.599Z,19.70
2018-08-30T16:55:06.534Z,19.60
2018-08-30T16:57:34.496Z,19.60
2018-08-30T17:00:02.689Z,19.60
2018-08-30T17:02:30.417Z,19.50
2018-08-30T17:04:58.188Z,19.40
2018-08-30T17:07:25.934Z,19.40
2018-08-30T17:09:53.840Z,19.40
2018-08-30T17:12:22.016Z,19.40
2018-08-30T17:17:59.775Z,19.30
2018-08-30T17:20:35.724Z,19.20
2018-08-30T17:23:03.173Z,19.20
2018-08-30T17:25:30.618Z,19.20
2018-08-30T17:27:58.298Z,19.10
2018-08-30T17:30:26.235Z,19.00
2018-08-30T17:32:53.851Z,19.00
2018-08-30T17:35:21.823Z,18.90
2018-08-30T17:37:49.679Z,18.90
2018-08-30T17:40:17.384Z,18.80
2018-08-30T17:42:45.191Z,18.80
2018-08-30T17:45:13.001Z,18.70
2018-08-30T17:47:40.616Z,18.60
2018-08-30T17:50:08.312Z,18.60
2018-08-30T17:54:43.967Z,18.50
2018-08-30T17:57:11.675Z,18.40
2018-08-30T17:59:39.396Z,18.50
2018-08-30T18:02:07.196Z,18.40
2018-08-30T18:04:35.013Z,18.40
2018-08-30T18:07:02.763Z,18.40
2018-08-30T18:09:30.236Z,18.40
2018-08-30T18:11:57.881Z,18.30
2018-08-30T18:14:25.553Z,18.30
2018-08-30T18:16:53.328Z,18.20
2018-08-30T18:19:21.134Z,18.10
2018-08-30T18:21:48.865Z,18.10
2018-08-30T18:24:16.707Z,18.00
2018-08-30T18:26:44.440Z,18.00
2018-08-30T18:29:12.117Z,17.90
2018-08-30T18:31:39.868Z,17.90
2018-08-30T18:34:07.602Z,17.90
2018-08-30T18:36:35.311Z,17.90
2018-08-30T18:39:03.583Z,17.80
2018-08-30T18:41:31.393Z,17.70
2018-08-30T18:43:59.154Z,17.70
2018-08-30T18:46:26.892Z,17.60
2018-08-30T18:48:54.636Z,17.60
2018-08-30T18:51:22.437Z,17.50
2018-08-30T18:53:50.188Z,17.40
2018-08-30T18:56:17.974Z,17.30
2018-08-30T18:58:49.691Z,17.20
2018-08-30T19:01:21.008Z,17.10
2018-08-30T19:03:48.818Z,17.00
2018-08-30T19:06:16.883Z,17.00
2018-08-30T19:08:44.649Z,16.90
2018-08-30T19:11:12.403Z,16.80
2018-08-30T19:13:40.410Z,16.80
2018-08-30T19:16:13.964Z,16.70
2018-08-30T19:18:47.213Z,16.60
2018-08-30T19:21:15.012Z,16.60
2018-08-30T19:23:42.848Z,16.40
2018-08-30T19:26:10.828Z,16.40
2018-08-30T19:28:38.659Z,16.30
2018-08-30T19:31:06.535Z,16.20
2018-08-30T19:33:34.492Z,16.20
2018-08-30T19:36:08.010Z,16.00
2018-08-30T19:38:35.861Z,15.90
2018-08-30T19:41:09.361Z,15.80
2018-08-30T19:43:37.537Z,15.80
2018-08-30T19:46:06.565Z,15.80
2018-08-30T19:48:34.879Z,15.70
2018-08-30T19:51:03.245Z,15.60
2018-08-30T19:53:31.542Z,15.60
2018-08-30T19:55:59.462Z,15.50
2018-08-30T19:58:27.309Z,15.40
2018-08-30T20:00:55.067Z,15.40
2018-08-30T20:03:22.795Z,15.40
2018-08-30T20:05:50.544Z,15.30
2018-08-30T20:08:18.231Z,15.20
2018-08-30T20:10:46.012Z,15.00
2018-08-30T20:13:14.817Z,14.90
2018-08-30T20:15:42.590Z,14.90
2018-08-30T20:18:10.373Z,14.80
2018-08-30T20:20:38.128Z,14.70
2018-08-30T20:23:05.992Z,14.60
2018-08-30T20:25:33.654Z,14.60
2018-08-30T20:28:01.373Z,14.50
2018-08-30T20:30:29.067Z,14.40
2018-08-30T20:32:56.767Z,14.40
2018-08-30T20:35:24.488Z,14.30
2018-08-30T20:37:52.204Z,14.30
2018-08-30T20:40:19.872Z,14.30
2018-08-30T20:42:47.579Z,14.20
2018-08-30T20:45:15.335Z,14.20
2018-08-30T20:47:46.673Z,14.30
2018-08-30T20:50:14.435Z,14.30
2018-08-30T20:52:42.168Z,14.20
2018-08-30T20:55:10.048Z,14.10
2018-08-30T20:57:37.769Z,14.10
2018-08-30T21:00:05.684Z,14.10
2018-08-30T21:02:33.435Z,14.00
2018-08-30T21:05:02.204Z,14.00
2018-08-30T21:07:29.928Z,14.00
2018-08-30T21:09:57.624Z,13.90
2018-08-30T21:12:25.429Z,13.80
2018-08-30T21:14:53.159Z,13.80
2018-08-30T21:17:20.769Z,13.80
2018-08-30T21:19:48.529Z,13.70
2018-08-30T21:22:16.223Z,13.60
2018-08-30T21:24:45.920Z,13.60
2018-08-30T21:27:13.776Z,13.60
2018-08-30T21:29:41.483Z,13.60
2018-08-30T21:32:09.259Z,13.60
2018-08-30T21:34:37.263Z,13.50
2018-08-30T21:37:04.977Z,13.50
2018-08-30T21:39:32.695Z,13.60
2018-08-30T21:42:00.503Z,13.60
2018-08-30T21:44:28.136Z,13.50
2018-08-30T21:46:55.907Z,13.40
2018-08-30T21:49:23.707Z,13.40
2018-08-30T21:51:51.737Z,13.40
2018-08-30T21:54:19.427Z,13.30
2018-08-30T21:56:47.154Z,13.40
2018-08-30T21:59:14.872Z,13.30
2018-08-30T22:01:42.590Z,13.30
2018-08-30T22:04:10.302Z,13.40
2018-08-30T22:06:38.043Z,13.40
2018-08-30T22:09:07.949Z,13.30
2018-08-30T22:11:35.704Z,13.30
2018-08-30T22:14:03.516Z,13.30
2018-08-30T22:16:31.248Z,13.20
2018-08-30T22:18:58.963Z,13.20
2018-08-30T22:21:26.667Z,13.20
2018-08-30T22:23:54.360Z,13.20
2018-08-30T22:26:22.115Z,13.10
2018-08-30T22:28:49.879Z,13.00
2018-08-30T22:31:17.598Z,13.00
2018-08-30T22:33:45.357Z,13.10
2018-08-30T22:36:12.975Z,13.10
2018-08-30T22:38:40.684Z,13.10
2018-08-30T22:41:08.417Z,13.10
2018-08-30T22:43:36.117Z,13.10
2018-08-30T22:46:03.810Z,13.10
2018-08-30T22:48:31.524Z,13.10
2018-08-30T22:50:59.175Z,13.10
2018-08-30T22:53:26.895Z,13.10
2018-08-30T22:55:54.736Z,13.10
2018-08-30T22:58:22.687Z,13.10
2018-08-30T23:00:50.417Z,13.10
2018-08-30T23:03:18.156Z,13.00
2018-08-30T23:05:46.903Z,13.00
2018-08-30T23:08:14.716Z,13.00
2018-08-30T23:10:42.480Z,13.00
2018-08-30T23:13:10.239Z,13.00
2018-08-30T23:15:37.957Z,13.00
2018-08-30T23:18:05.739Z,13.00
2018-08-30T23:20:33.463Z,12.90
2018-08-30T23:23:04.787Z,12.90
2018-08-30T23:25:32.543Z,12.90
2018-08-30T23:28:00.360Z,12.90
2018-08-30T23:30:28.166Z,12.90
2018-08-30T23:32:55.884Z,12.90
2018-08-30T23:35:23.583Z,12.90
2018-08-30T23:37:51.297Z,12.90
2018-08-30T23:40:18.967Z,12.90
2018-08-30T23:42:46.687Z,12.90
2018-08-30T23:45:14.468Z,12.90
2018-08-30T23:47:42.192Z,12.90
2018-08-30T23:50:09.929Z,12.90
2018-08-30T23:52:37.680Z,12.90
2018-08-30T23:55:05.499Z,12.90
2018-08-30T23:57:33.230Z,12.90
